sensor_id;sensor_type;location;lat;lon;timestamp;pressure;altitude;pressure_sealevel;temperature;humidity
49945;BME280;35838;49.134;9.212;2023-05-23T00:01:32;99714.50;;;18.68;100.00
49945;BME280;35838;49.134;9.212;2023-05-23T00:03:07;99726.66;;;18.70;100.00
49945;BME280;35838;49.134;9.212;2023-05-23T00:04:43;99722.84;;;18.77;100.00
49945;BME280;35838;49.134;9.212;2023-05-23T00:06:18;99724.69;;;18.75;100.00
49945;BME280;35838;49.134;9.212;2023-05-23T00:07:50;99723.53;;;18.60;100.00
49945;BME280;35838;49.134;9.212;2023-05-23T00:09:24;99721.66;;;18.64;100.00
49945;BME280;35838;49.134;9.212;2023-05-23T00:10:55;99719.69;;;18.69;100.00
49945;BME280;35838;49.134;9.212;2023-05-23T00:12:29;99714.16;;;18.75;100.00
49945;BME280;35838;49.134;9.212;2023-05-23T00:14:03;99716.22;;;18.46;100.00
49945;BME280;35838;49.134;9.212;2023-05-23T00:15:37;99723.34;;;18.43;100.00
49945;BME280;35838;49.134;9.212;2023-05-23T00:17:11;99716.88;;;18.52;100.00
49945;BME280;35838;49.134;9.212;2023-05-23T00:18:47;99726.59;;;18.50;100.00
49945;BME280;35838;49.134;9.212;2023-05-23T00:20:23;99717.63;;;18.55;100.00
49945;BME280;35838;49.134;9.212;2023-05-23T00:21:54;99723.59;;;18.59;100.00
49945;BME280;35838;49.134;9.212;2023-05-23T00:23:31;99724.94;;;18.69;100.00
49945;BME280;35838;49.134;9.212;2023-05-23T00:25:03;99718.84;;;18.69;100.00
49945;BME280;35838;49.134;9.212;2023-05-23T00:26:37;99726.72;;;18.69;100.00
49945;BME280;35838;49.134;9.212;2023-05-23T00:28:11;99731.00;;;18.71;100.00
49945;BME280;35838;49.134;9.212;2023-05-23T00:29:42;99731.78;;;18.73;100.00
49945;BME280;35838;49.134;9.212;2023-05-23T00:31:15;99730.84;;;18.74;100.00
49945;BME280;35838;49.134;9.212;2023-05-23T00:32:49;99731.91;;;18.70;100.00
49945;BME280;35838;49.134;9.212;2023-05-23T00:34:24;99731.78;;;18.73;100.00
49945;BME280;35838;49.134;9.212;2023-05-23T00:36:00;99731.84;;;18.72;100.00
49945;BME280;35838;49.134;9.212;2023-05-23T00:37:33;99737.81;;;18.75;100.00
49945;BME280;35838;49.134;9.212;2023-05-23T00:39:07;99737.16;;;18.70;100.00
49945;BME280;35838;49.134;9.212;2023-05-23T00:40:48;99732.22;;;18.62;100.00
49945;BME280;35838;49.134;9.212;2023-05-23T00:42:22;99736.84;;;18.56;100.00
49945;BME280;35838;49.134;9.212;2023-05-23T00:43:55;99738.63;;;18.55;100.00
49945;BME280;35838;49.134;9.212;2023-05-23T00:45:29;99746.59;;;18.54;100.00
49945;BME280;35838;49.134;9.212;2023-05-23T00:47:04;99748.53;;;18.48;100.00
49945;BME280;35838;49.134;9.212;2023-05-23T00:48:36;99747.63;;;18.50;100.00
49945;BME280;35838;49.134;9.212;2023-05-23T00:50:11;99739.81;;;18.48;100.00
49945;BME280;35838;49.134;9.212;2023-05-23T00:51:48;99746.22;;;18.41;100.00
49945;BME280;35838;49.134;9.212;2023-05-23T00:53:22;99748.88;;;18.39;100.00
49945;BME280;35838;49.134;9.212;2023-05-23T00:54:53;99744.63;;;18.37;100.00
49945;BME280;35838;49.134;9.212;2023-05-23T00:56:27;99749.78;;;18.38;100.00
49945;BME280;35838;49.134;9.212;2023-05-23T00:58:01;99751.56;;;18.38;100.00
49945;BME280;35838;49.134;9.212;2023-05-23T00:59:44;99749.78;;;18.38;100.00
49945;BME280;35838;49.134;9.212;2023-05-23T01:01:31;99753.16;;;18.20;100.00
49945;BME280;35838;49.134;9.212;2023-05-23T01:03:06;99752.56;;;18.35;100.00
49945;BME280;35838;49.134;9.212;2023-05-23T01:04:48;99752.56;;;18.35;100.00
49945;BME280;35838;49.134;9.212;2023-05-23T01:06:24;99751.50;;;18.39;100.00
49945;BME280;35838;49.134;9.212;2023-05-23T01:08:02;99772.50;;;18.41;100.00
49945;BME280;35838;49.134;9.212;2023-05-23T01:09:37;99761.00;;;18.43;100.00
49945;BME280;35838;49.134;9.212;2023-05-23T01:11:13;99771.50;;;18.43;100.00
49945;BME280;35838;49.134;9.212;2023-05-23T01:12:50;99766.25;;;18.43;100.00
49945;BME280;35838;49.134;9.212;2023-05-23T01:14:27;99767.00;;;18.47;100.00
49945;BME280;35838;49.134;9.212;2023-05-23T01:16:05;99766.16;;;18.46;100.00
49945;BME280;35838;49.134;9.212;2023-05-23T01:17:42;99759.91;;;18.49;100.00
49945;BME280;35838;49.134;9.212;2023-05-23T01:19:19;99760.88;;;18.46;100.00
49945;BME280;35838;49.134;9.212;2023-05-23T01:21:00;99757.63;;;18.40;100.00
49945;BME280;35838;49.134;9.212;2023-05-23T01:22:37;99764.91;;;18.33;100.00
49945;BME280;35838;49.134;9.212;2023-05-23T01:24:25;99763.09;;;18.33;100.00
49945;BME280;35838;49.134;9.212;2023-05-23T01:28:00;99759.88;;;18.27;100.00
49945;BME280;35838;49.134;9.212;2023-05-23T01:29:36;99768.69;;;18.26;100.00
49945;BME280;35838;49.134;9.212;2023-05-23T01:31:12;99768.69;;;18.26;100.00
49945;BME280;35838;49.134;9.212;2023-05-23T01:32:46;99762.72;;;18.21;100.00
49945;BME280;35838;49.134;9.212;2023-05-23T01:34:20;99761.78;;;18.23;100.00
49945;BME280;35838;49.134;9.212;2023-05-23T01:35:51;99761.06;;;18.18;100.00
49945;BME280;35838;49.134;9.212;2023-05-23T01:37:25;99761.94;;;18.19;100.00
49945;BME280;35838;49.134;9.212;2023-05-23T01:38:59;99754.91;;;18.19;100.00
49945;BME280;35838;49.134;9.212;2023-05-23T01:40:33;99759.00;;;18.26;100.00
49945;BME280;35838;49.134;9.212;2023-05-23T01:42:07;99766.03;;;18.26;100.00
49945;BME280;35838;49.134;9.212;2023-05-23T01:43:43;99770.25;;;18.30;100.00
49945;BME280;35838;49.134;9.212;2023-05-23T01:45:17;99766.13;;;18.24;100.00
49945;BME280;35838;49.134;9.212;2023-05-23T01:46:51;99759.88;;;18.27;100.00
49945;BME280;35838;49.134;9.212;2023-05-23T01:48:24;99769.34;;;18.31;100.00
49945;BME280;35838;49.134;9.212;2023-05-23T01:49:56;99765.69;;;18.35;100.00
49945;BME280;35838;49.134;9.212;2023-05-23T01:51:30;99766.59;;;18.34;100.00
49945;BME280;35838;49.134;9.212;2023-05-23T01:53:01;99765.69;;;18.35;100.00
49945;BME280;35838;49.134;9.212;2023-05-23T01:54:35;99772.78;;;18.33;100.00
49945;BME280;35838;49.134;9.212;2023-05-23T01:56:13;99767.53;;;18.33;100.00
49945;BME280;35838;49.134;9.212;2023-05-23T01:57:47;99767.59;;;18.31;100.00
49945;BME280;35838;49.134;9.212;2023-05-23T01:59:22;99770.16;;;18.33;100.00
49945;BME280;35838;49.134;9.212;2023-05-23T02:00:56;99770.16;;;18.33;100.00
49945;BME280;35838;49.134;9.212;2023-05-23T02:02:27;99771.22;;;18.27;100.00
49945;BME280;35838;49.134;9.212;2023-05-23T02:04:02;99769.50;;;18.26;100.00
49945;BME280;35838;49.134;9.212;2023-05-23T02:05:36;99776.44;;;18.29;100.00
49945;BME280;35838;49.134;9.212;2023-05-23T02:07:10;99775.47;;;18.31;100.00
49945;BME280;35838;49.134;9.212;2023-05-23T02:08:43;99771.78;;;18.36;100.00
49945;BME280;35838;49.134;9.212;2023-05-23T02:10:17;99777.97;;;18.35;100.00
49945;BME280;35838;49.134;9.212;2023-05-23T02:12:01;99773.44;;;18.38;100.00
49945;BME280;35838;49.134;9.212;2023-05-23T02:13:35;99779.75;;;18.34;100.00
49945;BME280;35838;49.134;9.212;2023-05-23T02:15:12;99779.63;;;18.37;100.00
49945;BME280;35838;49.134;9.212;2023-05-23T02:16:46;99778.84;;;18.35;100.00
49945;BME280;35838;49.134;9.212;2023-05-23T02:18:22;99780.66;;;18.33;100.00
49945;BME280;35838;49.134;9.212;2023-05-23T02:19:58;99779.75;;;18.34;100.00
49945;BME280;35838;49.134;9.212;2023-05-23T02:21:32;99783.19;;;18.36;100.00
49945;BME280;35838;49.134;9.212;2023-05-23T02:23:06;99783.56;;;18.25;100.00
49945;BME280;35838;49.134;9.212;2023-05-23T20:25:53;100160.31;;;16.59;100.00
49945;BME280;35838;49.134;9.212;2023-05-23T20:27:27;100165.53;;;16.60;100.00
49945;BME280;35838;49.134;9.212;2023-05-23T20:29:00;100166.44;;;16.58;100.00
49945;BME280;35838;49.134;9.212;2023-05-23T20:30:34;100169.28;;;16.50;100.00
49945;BME280;35838;49.134;9.212;2023-05-23T20:32:07;100171.13;;;16.45;100.00
49945;BME280;35838;49.134;9.212;2023-05-23T20:33:41;100172.72;;;16.52;100.00
49945;BME280;35838;49.134;9.212;2023-05-23T20:35:15;100172.78;;;16.49;100.00
49945;BME280;35838;49.134;9.212;2023-05-23T20:36:48;100175.66;;;16.38;100.00
49945;BME280;35838;49.134;9.212;2023-05-23T20:38:22;100182.47;;;16.45;100.00
49945;BME280;35838;49.134;9.212;2023-05-23T20:39:56;100174.72;;;16.41;100.00
49945;BME280;35838;49.134;9.212;2023-05-23T20:41:33;100180.91;;;16.38;100.00
49945;BME280;35838;49.134;9.212;2023-05-23T20:43:06;100180.91;;;16.37;100.00
49945;BME280;35838;49.134;9.212;2023-05-23T20:44:40;100172.38;;;16.28;100.00
49945;BME280;35838;49.134;9.212;2023-05-23T20:46:14;100186.38;;;16.27;100.00
49945;BME280;35838;49.134;9.212;2023-05-23T20:47:47;100181.91;;;16.33;100.00
49945;BME280;35838;49.134;9.212;2023-05-23T20:49:23;100182.66;;;16.38;100.00
49945;BME280;35838;49.134;9.212;2023-05-23T20:50:57;100182.75;;;16.35;100.00
49945;BME280;35838;49.134;9.212;2023-05-23T20:52:30;100186.09;;;16.40;100.00
49945;BME280;35838;49.134;9.212;2023-05-23T20:54:06;100190.56;;;16.36;100.00
49945;BME280;35838;49.134;9.212;2023-05-23T20:55:40;100190.59;;;16.35;100.00
49945;BME280;35838;49.134;9.212;2023-05-23T20:57:16;100187.09;;;16.34;100.00
49945;BME280;35838;49.134;9.212;2023-05-23T20:58:49;100186.06;;;16.41;100.00
49945;BME280;35838;49.134;9.212;2023-05-23T21:00:23;100191.19;;;16.46;100.00
49945;BME280;35838;49.134;9.212;2023-05-23T21:01:57;100197.41;;;16.42;100.00
49945;BME280;35838;49.134;9.212;2023-05-23T21:03:30;100194.28;;;16.26;100.00
49945;BME280;35838;49.134;9.212;2023-05-23T21:05:04;100200.25;;;16.31;100.00
49945;BME280;35838;49.134;9.212;2023-05-23T21:06:38;100187.63;;;16.11;100.00
49945;BME280;35838;49.134;9.212;2023-05-23T21:08:09;100199.78;;;16.13;100.00
49945;BME280;35838;49.134;9.212;2023-05-23T21:09:43;100190.44;;;16.02;100.00
49945;BME280;35838;49.134;9.212;2023-05-23T21:11:16;100202.75;;;15.98;100.00
49945;BME280;35838;49.134;9.212;2023-05-23T21:12:53;100208.94;;;15.94;100.00
49945;BME280;35838;49.134;9.212;2023-05-23T21:14:26;100206.19;;;16.00;100.00
49945;BME280;35838;49.134;9.212;2023-05-23T21:16:02;100210.69;;;15.93;100.00
49945;BME280;35838;49.134;9.212;2023-05-23T21:17:36;100208.81;;;16.00;100.00
49945;BME280;35838;49.134;9.212;2023-05-23T21:19:09;100211.50;;;15.97;100.00
49945;BME280;35838;49.134;9.212;2023-05-23T21:20:43;100205.75;;;15.78;100.00
49945;BME280;35838;49.134;9.212;2023-05-23T21:22:16;100212.84;;;15.71;100.00
49945;BME280;35838;49.134;9.212;2023-05-23T21:23:50;100208.63;;;15.65;100.00
49945;BME280;35838;49.134;9.212;2023-05-23T21:25:24;100211.13;;;15.72;100.00
49945;BME280;35838;49.134;9.212;2023-05-23T21:26:57;100209.44;;;15.67;100.00
49945;BME280;35838;49.134;9.212;2023-05-23T21:28:34;100218.09;;;15.73;100.00
49945;BME280;35838;49.134;9.212;2023-05-23T21:30:08;100211.00;;;15.78;100.00
49945;BME280;35838;49.134;9.212;2023-05-23T21:31:41;100217.94;;;15.79;100.00
49945;BME280;35838;49.134;9.212;2023-05-23T21:33:15;100215.19;;;15.88;100.00
49945;BME280;35838;49.134;9.212;2023-05-23T21:34:49;100221.34;;;15.86;100.00
49945;BME280;35838;49.134;9.212;2023-05-23T21:36:22;100215.06;;;15.93;100.00
49945;BME280;35838;49.134;9.212;2023-05-23T21:37:56;100223.81;;;15.92;100.00
49945;BME280;35838;49.134;9.212;2023-05-23T21:39:29;100222.88;;;15.94;100.00
49945;BME280;35838;49.134;9.212;2023-05-23T21:41:03;100213.41;;;15.89;100.00
49945;BME280;35838;49.134;9.212;2023-05-23T21:42:34;100215.38;;;15.77;100.00
49945;BME280;35838;49.134;9.212;2023-05-23T21:44:10;100214.53;;;15.74;100.00
49945;BME280;35838;49.134;9.212;2023-05-23T21:45:42;100220.56;;;15.79;100.00
49945;BME280;35838;49.134;9.212;2023-05-23T21:47:16;100209.63;;;15.58;100.00
49945;BME280;35838;49.134;9.212;2023-05-23T21:48:50;100215.97;;;15.46;100.00
49945;BME280;35838;49.134;9.212;2023-05-23T21:50:24;100217.13;;;15.31;100.00
49945;BME280;35838;49.134;9.212;2023-05-23T21:51:57;100214.25;;;15.45;100.00
49945;BME280;35838;49.134;9.212;2023-05-23T21:53:31;100221.91;;;15.55;100.00
49945;BME280;35838;49.134;9.212;2023-05-23T21:55:05;100222.72;;;15.58;100.00
49945;BME280;35838;49.134;9.212;2023-05-23T21:56:38;100223.56;;;15.60;100.00
49945;BME280;35838;49.134;9.212;2023-05-23T21:58:12;100226.28;;;15.54;100.00
49945;BME280;35838;49.134;9.212;2023-05-23T21:59:48;100228.13;;;15.49;100.00
49945;BME280;35838;49.134;9.212;2023-05-23T22:01:22;100223.91;;;15.42;100.00
49945;BME280;35838;49.134;9.212;2023-05-23T22:02:56;100223.94;;;15.39;100.00
49945;BME280;35838;49.134;9.212;2023-05-23T22:04:29;100231.72;;;15.43;100.00
49945;BME280;35838;49.134;9.212;2023-05-23T22:06:03;100230.00;;;15.42;100.00
49945;BME280;35838;49.134;9.212;2023-05-23T22:07:37;100232.59;;;15.44;100.00
49945;BME280;35838;49.134;9.212;2023-05-23T22:09:10;100233.66;;;15.33;100.00
49945;BME280;35838;49.134;9.212;2023-05-23T22:10:44;100232.72;;;15.38;100.00
49945;BME280;35838;49.134;9.212;2023-05-23T22:12:18;100232.63;;;15.41;100.00
49945;BME280;35838;49.134;9.212;2023-05-23T22:13:52;100236.13;;;15.40;100.00
49945;BME280;35838;49.134;9.212;2023-05-23T22:15:28;100235.50;;;15.28;100.00
49945;BME280;35838;49.134;9.212;2023-05-23T22:17:02;100239.16;;;15.16;100.00
49945;BME280;35838;49.134;9.212;2023-05-23T22:18:35;100246.09;;;15.20;100.00
49945;BME280;35838;49.134;9.212;2023-05-23T22:20:07;100246.03;;;15.22;100.00
49945;BME280;35838;49.134;9.212;2023-05-23T22:21:42;100248.66;;;15.22;100.00
49945;BME280;35838;49.134;9.212;2023-05-23T22:23:16;100247.16;;;15.09;100.00
49945;BME280;35838;49.134;9.212;2023-05-23T22:24:49;100247.84;;;15.20;100.00
49945;BME280;35838;49.134;9.212;2023-05-23T22:26:21;100252.06;;;15.27;100.00
49945;BME280;35838;49.134;9.212;2023-05-23T22:27:54;100253.00;;;15.23;100.00
49945;BME280;35838;49.134;9.212;2023-05-23T22:29:28;100253.72;;;15.31;100.00
49945;BME280;35838;49.134;9.212;2023-05-23T22:31:04;100254.53;;;15.35;100.00
49945;BME280;35838;49.134;9.212;2023-05-23T22:32:38;100253.69;;;15.34;100.00
49945;BME280;35838;49.134;9.212;2023-05-23T22:34:12;100256.25;;;15.38;100.00
49945;BME280;35838;49.134;9.212;2023-05-23T22:35:45;100247.69;;;15.29;100.00
49945;BME280;35838;49.134;9.212;2023-05-23T22:37:19;100252.78;;;15.35;100.00
49945;BME280;35838;49.134;9.212;2023-05-23T22:38:53;100252.66;;;15.42;100.00
49945;BME280;35838;49.134;9.212;2023-05-23T22:40:26;100243.19;;;15.36;100.00
49945;BME280;35838;49.134;9.212;2023-05-23T22:42:00;100249.38;;;15.32;100.00
49945;BME280;35838;49.134;9.212;2023-05-23T22:43:33;100251.91;;;15.37;100.00
49945;BME280;35838;49.134;9.212;2023-05-23T22:45:07;100242.59;;;15.22;100.00
49945;BME280;35838;49.134;9.212;2023-05-23T22:46:44;100245.97;;;15.28;100.00
49945;BME280;35838;49.134;9.212;2023-05-23T22:48:15;100246.88;;;15.24;100.00
49945;BME280;35838;49.134;9.212;2023-05-23T22:49:49;100241.81;;;15.15;100.00
49945;BME280;35838;49.134;9.212;2023-05-23T22:51:23;100243.47;;;15.20;100.00
49945;BME280;35838;49.134;9.212;2023-05-23T22:52:57;100250.38;;;15.23;100.00
49945;BME280;35838;49.134;9.212;2023-05-23T22:54:30;100245.16;;;15.23;100.00
49945;BME280;35838;49.134;9.212;2023-05-23T22:56:04;100245.06;;;15.29;100.00
49945;BME280;35838;49.134;9.212;2023-05-23T22:57:38;100252.00;;;15.30;100.00
49945;BME280;35838;49.134;9.212;2023-05-23T22:59:11;100251.91;;;15.37;100.00
49945;BME280;35838;49.134;9.212;2023-05-23T23:00:45;100255.34;;;15.39;100.00
49945;BME280;35838;49.134;9.212;2023-05-23T23:02:21;100249.38;;;15.32;100.00
49945;BME280;35838;49.134;9.212;2023-05-23T23:03:52;100258.97;;;15.31;100.00
49945;BME280;35838;49.134;9.212;2023-05-23T23:05:26;100252.84;;;15.32;100.00
49945;BME280;35838;49.134;9.212;2023-05-23T23:06:59;100253.88;;;15.22;100.00
49945;BME280;35838;49.134;9.212;2023-05-23T23:08:31;100245.97;;;15.27;100.00
49945;BME280;35838;49.134;9.212;2023-05-23T23:10:05;100253.81;;;15.28;100.00
49945;BME280;35838;49.134;9.212;2023-05-23T23:11:36;100250.31;;;15.29;100.00
49945;BME280;35838;49.134;9.212;2023-05-23T23:13:09;100256.34;;;15.33;100.00
49945;BME280;35838;49.134;9.212;2023-05-23T23:14:43;100249.34;;;15.33;100.00
49945;BME280;35838;49.134;9.212;2023-05-23T23:16:16;100249.41;;;15.29;100.00
49945;BME280;35838;49.134;9.212;2023-05-23T23:17:53;100241.63;;;15.27;100.00
49945;BME280;35838;49.134;9.212;2023-05-23T23:19:27;100241.53;;;15.30;100.00
49945;BME280;35838;49.134;9.212;2023-05-23T23:21:04;100239.84;;;15.28;100.00
49945;BME280;35838;49.134;9.212;2023-05-23T23:22:38;100239.81;;;15.31;100.00
49945;BME280;35838;49.134;9.212;2023-05-23T23:24:09;100242.34;;;15.34;100.00
49945;BME280;35838;49.134;9.212;2023-05-23T23:25:43;100237.22;;;15.28;100.00
49945;BME280;35838;49.134;9.212;2023-05-23T23:27:19;100242.53;;;15.25;100.00
49945;BME280;35838;49.134;9.212;2023-05-23T23:28:51;100246.94;;;15.21;100.00
49945;BME280;35838;49.134;9.212;2023-05-23T23:30:25;100243.44;;;15.24;100.00
49945;BME280;35838;49.134;9.212;2023-05-23T23:31:59;100240.94;;;15.16;100.00
49945;BME280;35838;49.134;9.212;2023-05-23T23:33:32;100244.28;;;15.24;100.00
49945;BME280;35838;49.134;9.212;2023-05-23T23:35:06;100240.00;;;15.20;100.00
49945;BME280;35838;49.134;9.212;2023-05-23T23:36:37;100239.09;;;15.21;100.00
49945;BME280;35838;49.134;9.212;2023-05-23T23:38:11;100241.75;;;15.19;100.00
49945;BME280;35838;49.134;9.212;2023-05-23T23:39:45;100231.25;;;15.23;100.00
49945;BME280;35838;49.134;9.212;2023-05-23T23:41:18;100228.72;;;15.18;100.00
49945;BME280;35838;49.134;9.212;2023-05-23T23:42:53;100230.44;;;15.19;100.00
49945;BME280;35838;49.134;9.212;2023-05-23T23:44:26;100231.41;;;15.12;100.00
49945;BME280;35838;49.134;9.212;2023-05-23T23:46:00;100236.63;;;15.12;100.00
49945;BME280;35838;49.134;9.212;2023-05-23T23:47:34;100229.75;;;15.08;100.00
49945;BME280;35838;49.134;9.212;2023-05-23T23:49:07;100229.75;;;15.08;100.00
49945;BME280;35838;49.134;9.212;2023-05-23T23:50:41;100234.31;;;14.95;100.00
49945;BME280;35838;49.134;9.212;2023-05-23T23:52:14;100236.97;;;14.93;100.00
49945;BME280;35838;49.134;9.212;2023-05-23T23:53:48;100225.72;;;14.90;100.00
49945;BME280;35838;49.134;9.212;2023-05-23T23:55:22;100231.84;;;14.87;100.00
49945;BME280;35838;49.134;9.212;2023-05-23T23:56:55;100227.59;;;14.80;100.00
49945;BME280;35838;49.134;9.212;2023-05-23T23:58:29;100227.59;;;14.80;100.00
